Time;durP1;ratioP1;P1;durP2;ratioP2;P2;SDS_P1;SDS_P2;PMS_P1;PMS_P2;Temp;Humidity;BMP_temperature;BMP_pressure;BME280_temperature;BME280_humidity;BME280_pressure;Samples;Min_cycle;Max_cycle;Signal;HPM_P1;HPM_P2
2021/08/24 00:02:20;;;;;;;30.20;19.17;;;;;;;-145.01;100.00;64805.59;4996344;28;20035;-64
2021/08/24 00:04:46;;;;;;;30.67;19.23;;;;;;;-145.01;100.00;64805.59;4996697;28;20030;-64
2021/08/24 00:07:11;;;;;;;29.20;20.17;;;;;;;-145.01;100.00;64805.59;4996198;28;20174;-64
2021/08/24 00:09:37;;;;;;;34.63;22.73;;;;;;;-145.01;100.00;64805.59;4996379;28;20536;-64
2021/08/24 00:12:03;;;;;;;42.03;23.15;;;;;;;-145.01;100.00;64805.59;4996135;28;20035;-64
2021/08/24 00:14:31;;;;;;;40.55;23.08;;;;;;;-145.01;100.00;64805.59;4996575;28;20065;-64
2021/08/24 00:16:57;;;;;;;36.17;22.23;;;;;;;-145.01;100.00;64805.59;4996050;28;20030;-64
2021/08/24 00:19:22;;;;;;;37.72;22.73;;;;;;;-145.01;100.00;64805.59;4996298;28;20110;-64
2021/08/24 00:21:47;;;;;;;36.92;22.98;;;;;;;-145.01;100.00;64805.59;4995874;28;20101;-64
2021/08/24 00:24:13;;;;;;;33.63;21.90;;;;;;;-145.01;100.00;64805.59;4996349;28;20022;-64
2021/08/24 00:26:39;;;;;;;37.38;22.48;;;;;;;-145.01;100.00;64805.59;4995884;28;20041;-64
2021/08/24 00:29:04;;;;;;;29.90;19.48;;;;;;;-145.01;100.00;64805.59;4995993;28;20037;-64
2021/08/24 00:31:30;;;;;;;34.40;21.13;;;;;;;-145.01;100.00;64805.59;4995690;28;20039;-64
2021/08/24 00:33:55;;;;;;;32.42;21.17;;;;;;;-145.01;100.00;64805.59;4996381;28;20022;-64
2021/08/24 00:36:21;;;;;;;37.40;21.42;;;;;;;-145.01;100.00;64805.59;4995832;28;20030;-64
2021/08/24 00:38:47;;;;;;;40.35;23.25;;;;;;;-145.01;100.00;64805.59;4994943;28;20033;-64
2021/08/24 00:41:12;;;;;;;35.20;21.95;;;;;;;-145.01;100.00;64805.59;4981335;28;20089;-64
2021/08/24 00:43:39;;;;;;;36.95;21.30;;;;;;;-145.01;100.00;64805.59;4992871;28;20066;-65
2021/08/24 00:46:29;;;;;;;36.65;21.35;;;;;;;-145.01;100.00;64805.59;4995713;28;20038;-64
2021/08/24 00:48:56;;;;;;;36.58;21.38;;;;;;;-145.01;100.00;64805.59;4995905;28;20472;-64
2021/08/24 00:51:23;;;;;;;33.58;21.27;;;;;;;-145.01;100.00;64805.59;4994262;28;20057;-64
2021/08/24 00:53:49;;;;;;;32.08;20.80;;;;;;;-145.01;100.00;64805.59;4994582;28;20064;-65
2021/08/24 00:56:14;;;;;;;42.50;23.33;;;;;;;-145.01;100.00;64805.59;4994089;28;20034;-64
2021/08/24 00:58:40;;;;;;;33.58;21.48;;;;;;;-145.01;100.00;64805.59;4994502;28;20022;-65
2021/08/24 01:01:05;;;;;;;37.65;24.33;;;;;;;-145.01;100.00;64805.59;4995433;28;20477;-65
2021/08/24 01:03:35;;;;;;;45.78;23.65;;;;;;;-145.01;100.00;64805.59;4995850;28;20088;-64
2021/08/24 01:06:05;;;;;;;40.15;24.42;;;;;;;-145.01;100.00;64805.59;4993884;28;20044;-64
2021/08/24 01:08:34;;;;;;;39.30;22.75;;;;;;;-145.01;100.00;64805.59;4977237;28;20089;-64
2021/08/24 01:11:19;;;;;;;39.28;24.45;;;;;;;-145.01;100.00;64805.59;4993903;28;20529;-65
2021/08/24 01:14:07;;;;;;;39.90;24.27;;;;;;;-145.01;100.00;64805.59;4994197;28;20065;-64
2021/08/24 01:16:44;;;;;;;39.50;22.45;;;;;;;-145.01;100.00;64805.59;4993913;28;20466;-64
2021/08/24 01:19:34;;;;;;;38.17;22.77;;;;;;;-145.01;100.00;64805.59;4993662;28;20022;-64
2021/08/24 01:22:25;;;;;;;36.67;22.05;;;;;;;-145.01;100.00;64805.59;4995037;28;20042;-64
2021/08/24 01:25:07;;;;;;;37.45;22.58;;;;;;;-145.01;100.00;64805.59;4994003;28;20034;-64
2021/08/24 01:27:36;;;;;;;37.90;22.50;;;;;;;-145.01;100.00;64805.59;4978118;28;20481;-64
2021/08/24 01:30:43;;;;;;;36.92;22.52;;;;;;;-145.01;100.00;64805.59;4993709;28;20026;-65
2021/08/24 01:33:51;;;;;;;42.70;23.45;;;;;;;-145.01;100.00;64805.59;4994197;28;20057;-64
2021/08/24 01:36:20;;;;;;;40.38;23.67;;;;;;;-145.01;100.00;64805.59;4994412;28;20038;-64
2021/08/24 01:38:54;;;;;;;35.42;23.70;;;;;;;-145.01;100.00;64805.59;4977676;28;20492;-64
2021/08/24 01:41:48;;;;;;;33.67;22.38;;;;;;;-145.01;100.00;64805.59;4961761;28;20034;-64
2021/08/24 01:44:18;;;;;;;31.67;20.63;;;;;;;-145.01;100.00;64805.59;4993724;28;20456;-65
2021/08/24 01:46:55;;;;;;;33.83;21.02;;;;;;;-145.01;100.00;64805.59;4977173;28;20135;-64
2021/08/24 01:49:24;;;;;;;35.55;20.85;;;;;;;-145.01;100.00;64805.59;4993605;28;20113;-64
2021/08/24 01:51:51;;;;;;;34.08;21.90;;;;;;;-145.01;100.00;64805.59;4993142;28;20485;-64
2021/08/24 01:54:22;;;;;;;40.90;21.65;;;;;;;-145.01;100.00;64805.59;4993486;28;20469;-64
2021/08/24 01:56:47;;;;;;;34.80;21.48;;;;;;;-145.01;100.00;64805.59;4993117;28;20038;-64
2021/08/24 01:59:30;;;;;;;38.55;23.00;;;;;;;-145.01;100.00;64805.59;4993461;28;20085;-64
2021/08/24 02:02:01;;;;;;;33.28;20.95;;;;;;;-145.01;100.00;64805.59;4992824;28;20592;-64
2021/08/24 02:04:30;;;;;;;31.50;19.13;;;;;;;-145.01;100.00;64805.59;4993313;28;20022;-64
2021/08/24 02:06:55;;;;;;;34.92;21.35;;;;;;;-145.01;100.00;64805.59;4976516;28;20031;-64
2021/08/24 02:09:30;;;;;;;34.08;21.27;;;;;;;-145.01;100.00;64805.59;4976613;28;20050;-64
2021/08/24 02:11:55;;;;;;;39.30;21.70;;;;;;;-145.01;100.00;64805.59;4961485;28;20620;-64
2021/08/24 02:14:21;;;;;;;39.60;22.27;;;;;;;-145.01;100.00;64805.59;4976590;28;20029;-64
2021/08/24 02:16:47;;;;;;;35.28;20.33;;;;;;;-145.01;100.00;64805.59;4976316;28;20161;-64
2021/08/24 02:19:22;;;;;;;36.08;20.50;;;;;;;-145.01;100.00;64805.59;4992873;28;20026;-64
2021/08/24 02:21:53;;;;;;;34.40;20.83;;;;;;;-145.01;100.00;64805.59;4976916;28;20037;-64
2021/08/24 02:24:21;;;;;;;37.25;22.63;;;;;;;-145.01;100.00;64805.59;4988737;28;20527;-64
2021/08/24 02:26:46;;;;;;;30.15;19.95;;;;;;;-145.01;100.00;64805.59;4983699;28;20497;-64
2021/08/24 02:29:12;;;;;;;35.33;20.35;;;;;;;-145.01;100.00;64805.59;4973308;28;20026;-64
2021/08/24 02:31:44;;;;;;;34.45;20.60;;;;;;;-145.01;100.00;64805.59;4974122;28;20057;-64
2021/08/24 02:34:23;;;;;;;43.13;23.27;;;;;;;-145.01;100.00;64805.59;4974448;28;20413;-64
2021/08/24 02:37:09;;;;;;;31.92;19.67;;;;;;;-145.01;100.00;64805.59;4972847;28;20130;-64
2021/08/24 02:39:46;;;;;;;42.72;22.85;;;;;;;-145.01;100.00;64805.59;4973363;28;20050;-64
2021/08/24 02:42:15;;;;;;;36.80;21.70;;;;;;;-145.01;100.00;64805.59;4972708;28;20035;-64
2021/08/24 02:44:46;;;;;;;35.03;20.10;;;;;;;-145.01;100.00;64805.59;4973123;28;20042;-64
2021/08/24 02:47:11;;;;;;;41.88;23.73;;;;;;;-145.01;100.00;64805.59;4972569;28;20222;-64
2021/08/24 02:49:37;;;;;;;45.65;22.50;;;;;;;-145.01;100.00;64805.59;4973005;28;20111;-64
2021/08/24 02:52:04;;;;;;;36.97;21.02;;;;;;;-145.01;100.00;64805.59;4972187;28;20035;-64
2021/08/24 02:54:35;;;;;;;39.92;21.45;;;;;;;-145.01;100.00;64805.59;4956860;28;20027;-64
2021/08/24 02:57:01;;;;;;;40.10;22.85;;;;;;;-145.01;100.00;64805.59;4972433;28;20035;-64
2021/08/24 02:59:27;;;;;;;43.90;22.27;;;;;;;-145.01;100.00;64805.59;4973948;28;20041;-64
2021/08/24 03:01:53;;;;;;;33.58;19.90;;;;;;;-145.01;100.00;64805.59;4973561;28;20066;-64
2021/08/24 03:04:18;;;;;;;38.25;22.05;;;;;;;-145.01;100.00;64805.59;4974094;28;20026;-64
2021/08/24 03:06:48;;;;;;;36.08;21.52;;;;;;;-145.01;100.00;64805.59;4973519;28;20034;-64
2021/08/24 03:09:15;;;;;;;40.40;22.65;;;;;;;-145.01;100.00;64805.59;4972435;28;20050;-64
2021/08/24 03:11:44;;;;;;;53.92;23.77;;;;;;;-145.01;100.00;64805.59;4972048;28;20035;-64
2021/08/24 03:14:18;;;;;;;62.22;30.23;;;;;;;-145.01;100.00;64805.59;4956558;28;20025;-64
2021/08/24 03:16:47;;;;;;;59.13;29.48;;;;;;;-145.01;100.00;64805.59;4988329;28;20062;-64
2021/08/24 03:19:22;;;;;;;43.33;26.55;;;;;;;-145.01;100.00;64805.59;4972801;28;20101;-64
2021/08/24 03:21:48;;;;;;;45.20;26.75;;;;;;;-145.01;100.00;64805.59;4972233;28;20418;-64
2021/08/24 03:24:14;;;;;;;50.95;26.05;;;;;;;-145.01;100.00;64805.59;4973698;28;20019;-64
2021/08/24 03:26:40;;;;;;;37.72;22.25;;;;;;;-145.01;100.00;64805.59;4972203;28;20043;-64
2021/08/24 03:29:07;;;;;;;44.15;22.30;;;;;;;-145.01;100.00;64805.59;4979394;28;20118;-64
2021/08/24 03:31:32;;;;;;;48.92;21.98;;;;;;;-145.01;100.00;64805.59;4996050;28;20030;-64
2021/08/24 03:33:58;;;;;;;34.65;20.23;;;;;;;-145.01;100.00;64805.59;4999895;28;20440;-64
2021/08/24 03:36:23;;;;;;;33.92;19.92;;;;;;;-145.01;100.00;64805.59;4999330;28;20034;-64
2021/08/24 03:38:49;;;;;;;36.53;18.92;;;;;;;-145.01;100.00;64805.59;4998408;28;20606;-64
2021/08/24 03:41:14;;;;;;;35.47;17.20;;;;;;;-145.01;100.00;64805.59;4999238;28;20035;-64
2021/08/24 03:43:40;;;;;;;40.38;20.35;;;;;;;-145.01;100.00;64805.59;4999642;28;20018;-64
2021/08/24 03:46:05;;;;;;;38.92;21.00;;;;;;;-145.01;100.00;64805.59;4999126;28;20038;-64
2021/08/24 03:48:31;;;;;;;42.40;21.63;;;;;;;-145.01;100.00;64805.59;4999553;28;20026;-64
2021/08/24 03:50:56;;;;;;;40.50;21.17;;;;;;;-145.01;100.00;64805.59;4999265;28;20034;-64
2021/08/24 03:53:21;;;;;;;36.55;20.80;;;;;;;-145.01;100.00;64805.59;4999478;28;20056;-64
2021/08/24 03:55:47;;;;;;;42.53;21.05;;;;;;;-145.01;100.00;64805.59;4999088;28;20066;-64
2021/08/24 03:58:13;;;;;;;46.47;22.40;;;;;;;-145.01;100.00;64805.59;4999893;28;20038;-64
2021/08/24 04:00:44;;;;;;;53.75;21.73;;;;;;;-145.01;100.00;64805.59;4999230;28;20129;-64
2021/08/24 04:03:10;;;;;;;39.63;21.05;;;;;;;-145.01;100.00;64805.59;4982766;28;20115;-64
2021/08/24 04:05:35;;;;;;;44.13;22.52;;;;;;;-145.01;100.00;64805.59;4999252;28;20405;-64
2021/08/24 04:08:01;;;;;;;47.00;23.05;;;;;;;-145.01;100.00;64805.59;4999521;28;20385;-64
2021/08/24 04:10:26;;;;;;;58.58;25.63;;;;;;;-145.01;100.00;64805.59;4998864;28;20492;-64
2021/08/24 04:12:52;;;;;;;48.75;25.00;;;;;;;-145.01;100.00;64805.59;4998243;28;20030;-64
2021/08/24 04:15:17;;;;;;;57.35;27.65;;;;;;;-145.01;100.00;64805.59;4999192;28;20022;-64
2021/08/24 04:17:44;;;;;;;60.00;25.90;;;;;;;-145.01;100.00;64805.59;4999616;28;20054;-64
2021/08/24 04:20:10;;;;;;;49.30;24.52;;;;;;;-145.01;100.00;64805.59;4999160;28;20084;-64
2021/08/24 04:22:38;;;;;;;50.85;24.48;;;;;;;-145.01;100.00;64805.59;4999287;28;20030;-64
2021/08/24 04:25:04;;;;;;;43.47;23.50;;;;;;;-145.01;100.00;64805.59;4998883;28;20034;-64
2021/08/24 04:27:29;;;;;;;41.67;21.60;;;;;;;-145.01;100.00;64805.59;4999231;28;20030;-64
2021/08/24 04:29:55;;;;;;;33.65;18.75;;;;;;;-145.01;100.00;64805.59;4999280;28;20030;-64
2021/08/24 04:32:25;;;;;;;37.35;20.67;;;;;;;-145.01;100.00;64805.59;4998869;28;20043;-64
2021/08/24 04:34:50;;;;;;;57.45;23.95;;;;;;;-145.01;100.00;64805.59;4998106;28;20033;-64
2021/08/24 04:37:16;;;;;;;43.85;20.67;;;;;;;-145.01;100.00;64805.59;4998880;28;20034;-64
2021/08/24 04:39:41;;;;;;;35.25;19.30;;;;;;;-145.01;100.00;64805.59;4999234;28;20026;-64
2021/08/24 04:42:06;;;;;;;34.10;19.83;;;;;;;-145.01;100.00;64805.59;4998126;28;20043;-64
2021/08/24 04:44:32;;;;;;;35.20;20.13;;;;;;;-145.01;100.00;64805.59;4995275;28;20030;-64
2021/08/24 04:46:57;;;;;;;39.25;18.65;;;;;;;-145.01;100.00;64805.59;4995735;28;20535;-64
2021/08/24 04:49:23;;;;;;;32.47;19.25;;;;;;;-145.01;100.00;64805.59;4996027;28;20053;-64
2021/08/24 04:51:49;;;;;;;28.92;17.40;;;;;;;-145.01;100.00;64805.59;4995950;28;20125;-64
2021/08/24 04:54:14;;;;;;;27.55;15.65;;;;;;;-145.01;100.00;64805.59;4995170;28;20493;-65
2021/08/24 04:56:40;;;;;;;35.75;16.00;;;;;;;-145.01;100.00;64805.59;4995802;28;20030;-65
2021/08/24 04:59:05;;;;;;;33.10;15.32;;;;;;;-145.01;100.00;64805.59;4995952;28;20019;-66
2021/08/24 05:01:31;;;;;;;28.35;14.00;;;;;;;-145.01;100.00;64805.59;4995533;28;20039;-64
2021/08/24 05:03:56;;;;;;;21.45;12.77;;;;;;;-145.01;100.00;64805.59;4995775;28;20035;-63
2021/08/24 05:06:22;;;;;;;27.40;13.23;;;;;;;-145.01;100.00;64805.59;4995236;28;20042;-63
2021/08/24 05:08:47;;;;;;;30.23;16.17;;;;;;;-145.01;100.00;64805.59;4995509;28;20054;-65
2021/08/24 05:11:12;;;;;;;27.83;12.63;;;;;;;-145.01;100.00;64805.59;4995295;28;20039;-63
2021/08/24 05:13:38;;;;;;;27.35;12.23;;;;;;;-145.01;100.00;64805.59;4995531;28;20042;-65
2021/08/24 05:16:09;;;;;;;27.23;12.25;;;;;;;-145.01;100.00;64805.59;4993893;28;20106;-63
2021/08/24 05:18:35;;;;;;;23.85;11.32;;;;;;;-145.01;100.00;64805.59;4995504;28;20035;-66
2021/08/24 05:21:04;;;;;;;27.02;11.52;;;;;;;-145.01;100.00;64805.59;4994803;28;20046;-65
2021/08/24 05:23:31;;;;;;;23.85;11.23;;;;;;;-145.01;100.00;64805.59;4995502;28;20555;-65
2021/08/24 05:25:56;;;;;;;22.08;10.40;;;;;;;-145.01;100.00;64805.59;4994961;28;20162;-66
2021/08/24 05:28:22;;;;;;;22.98;9.15;;;;;;;-145.01;100.00;64805.59;4995412;28;20030;-65
2021/08/24 05:30:47;;;;;;;31.95;11.45;;;;;;;-145.01;100.00;64805.59;4994822;28;20038;-65
2021/08/24 05:33:13;;;;;;;22.42;9.65;;;;;;;-145.01;100.00;64805.59;4995189;28;20022;-65
2021/08/24 05:35:38;;;;;;;23.33;10.73;;;;;;;-145.01;100.00;64805.59;4995019;28;20488;-65
2021/08/24 05:38:03;;;;;;;24.52;10.13;;;;;;;-145.01;100.00;64805.59;4995075;28;20027;-66
2021/08/24 05:40:29;;;;;;;18.90;9.90;;;;;;;-145.01;100.00;64805.59;4994648;28;20035;-65
2021/08/24 05:42:54;;;;;;;20.70;9.27;;;;;;;-145.01;100.00;64805.59;4994954;28;20098;-65
2021/08/24 05:45:20;;;;;;;21.38;8.93;;;;;;;-145.01;100.00;64805.59;4994513;28;20048;-65
2021/08/24 05:47:45;;;;;;;20.92;9.52;;;;;;;-145.01;100.00;64805.59;4994877;28;20030;-63
2021/08/24 05:50:11;;;;;;;21.30;9.55;;;;;;;-145.01;100.00;64805.59;4994363;28;20377;-66
2021/08/24 05:52:36;;;;;;;32.45;10.93;;;;;;;-145.01;100.00;64805.59;4995029;28;20027;-66
2021/08/24 05:55:02;;;;;;;23.98;8.93;;;;;;;-145.01;100.00;64805.59;4994172;28;20026;-65
2021/08/24 05:57:28;;;;;;;17.05;8.18;;;;;;;-145.01;100.00;64805.59;4994816;28;20062;-66
2021/08/24 05:59:53;;;;;;;15.68;7.63;;;;;;;-145.01;100.00;64805.59;4994877;28;20026;-63
2021/08/24 06:02:18;;;;;;;17.65;8.10;;;;;;;-145.01;100.00;64805.59;4994066;28;20046;-64
2021/08/24 06:04:44;;;;;;;14.48;7.43;;;;;;;-145.01;100.00;64805.59;4993736;28;20023;-64
2021/08/24 06:07:10;;;;;;;21.58;7.55;;;;;;;-145.01;100.00;64805.59;4994086;28;20038;-65
2021/08/24 06:09:36;;;;;;;29.02;7.75;;;;;;;-145.01;100.00;64805.59;4993285;28;20051;-66
2021/08/24 06:12:01;;;;;;;19.30;7.38;;;;;;;-145.01;100.00;64805.59;4993932;28;20062;-65
2021/08/24 06:14:27;;;;;;;17.10;6.40;;;;;;;-145.01;100.00;64805.59;4994497;28;20105;-65
2021/08/24 06:16:56;;;;;;;19.10;6.40;;;;;;;-145.01;100.00;64805.59;4994050;28;20043;-64
2021/08/24 06:19:22;;;;;;;21.65;6.05;;;;;;;-145.01;100.00;64805.59;4994608;28;20117;-65
2021/08/24 06:21:47;;;;;;;15.10;5.90;;;;;;;-145.01;100.00;64805.59;4994193;28;20049;-65
2021/08/24 06:24:13;;;;;;;23.45;6.20;;;;;;;-145.01;100.00;64805.59;4994468;28;20034;-65
2021/08/24 06:26:38;;;;;;;14.60;5.85;;;;;;;-145.01;100.00;64805.59;4992736;28;20038;-64
2021/08/24 06:29:04;;;;;;;19.33;6.18;;;;;;;-145.01;100.00;64805.59;4994197;28;20466;-65
2021/08/24 06:31:30;;;;;;;16.92;5.10;;;;;;;-145.01;100.00;64805.59;4992506;28;20042;-64
2021/08/24 06:33:56;;;;;;;15.95;5.15;;;;;;;-145.01;100.00;64805.59;4993137;28;20026;-64
2021/08/24 06:36:21;;;;;;;15.70;5.15;;;;;;;-145.01;100.00;64805.59;4992471;28;20180;-64
2021/08/24 06:38:47;;;;;;;15.05;5.80;;;;;;;-145.01;100.00;64805.59;4992987;28;20037;-63
2021/08/24 06:41:12;;;;;;;15.82;5.45;;;;;;;-145.01;100.00;64805.59;4993772;28;20069;-63
2021/08/24 06:43:38;;;;;;;19.98;5.57;;;;;;;-145.01;100.00;64805.59;4992814;28;20062;-63
2021/08/24 06:46:04;;;;;;;19.55;5.30;;;;;;;-145.01;100.00;64805.59;4993612;28;20034;-63
2021/08/24 06:48:29;;;;;;;20.35;5.20;;;;;;;-145.01;100.00;64805.59;4992548;28;20030;-63
2021/08/24 06:50:55;;;;;;;14.85;4.90;;;;;;;-145.01;100.00;64805.59;4993686;28;20034;-63
2021/08/24 06:53:20;;;;;;;16.58;5.15;;;;;;;-145.01;100.00;64805.59;4993720;28;20022;-63
2021/08/24 06:55:46;;;;;;;25.15;5.57;;;;;;;-145.01;100.00;64805.59;4993534;28;20039;-63
2021/08/24 06:58:11;;;;;;;22.60;5.25;;;;;;;-145.01;100.00;64805.59;4993904;28;20052;-63
2021/08/24 07:00:37;;;;;;;14.75;4.72;;;;;;;-145.01;100.00;64805.59;4993341;28;20038;-63
2021/08/24 07:03:05;;;;;;;12.98;4.85;;;;;;;-145.01;100.00;64805.59;4994022;28;20490;-63
2021/08/24 07:05:31;;;;;;;24.83;5.10;;;;;;;-145.01;100.00;64805.59;4992747;28;20030;-63
2021/08/24 07:07:56;;;;;;;20.60;4.82;;;;;;;-145.01;100.00;64805.59;4992291;28;20092;-64
2021/08/24 07:10:22;;;;;;;17.52;5.35;;;;;;;-145.01;100.00;64805.59;4993130;28;20045;-65
2021/08/24 07:12:47;;;;;;;20.92;4.95;;;;;;;-145.01;100.00;64805.59;4993597;28;20030;-65
2021/08/24 07:15:15;;;;;;;17.92;4.63;;;;;;;-145.01;100.00;64805.59;4993057;28;20025;-65
2021/08/24 07:17:40;;;;;;;13.77;4.03;;;;;;;-145.01;100.00;64805.59;4993434;28;20361;-65
2021/08/24 07:20:08;;;;;;;10.52;4.03;;;;;;;-145.01;100.00;64805.59;4992685;28;20041;-65
2021/08/24 07:22:33;;;;;;;10.10;4.20;;;;;;;-145.01;100.00;64805.59;4993363;28;20029;-64
2021/08/24 07:25:01;;;;;;;14.27;4.47;;;;;;;-145.01;100.00;64805.59;4992244;28;20022;-64
2021/08/24 07:27:26;;;;;;;10.05;4.95;;;;;;;-145.01;100.00;64805.59;4993020;28;20043;-64
2021/08/24 07:29:52;;;;;;;13.18;5.10;;;;;;;-145.01;100.00;64805.59;4993099;28;20053;-64
2021/08/24 07:32:17;;;;;;;8.02;4.30;;;;;;;-145.01;100.00;64805.59;4992894;28;20046;-64
2021/08/24 07:34:42;;;;;;;10.70;4.95;;;;;;;-145.01;100.00;64805.59;4993327;28;20026;-64
2021/08/24 07:37:08;;;;;;;13.80;5.07;;;;;;;-145.01;100.00;64805.59;4991619;28;20042;-64
2021/08/24 07:39:33;;;;;;;9.40;4.90;;;;;;;-145.01;100.00;64805.59;4993312;28;20026;-64
2021/08/24 07:41:59;;;;;;;11.75;4.80;;;;;;;-145.01;100.00;64805.59;4992807;28;20097;-64
2021/08/24 07:44:26;;;;;;;6.75;4.13;;;;;;;-145.01;100.00;64805.59;4991874;28;20034;-64
2021/08/24 07:46:52;;;;;;;13.07;4.78;;;;;;;-145.01;100.00;64805.59;4992672;28;20042;-65
2021/08/24 07:49:17;;;;;;;9.77;5.13;;;;;;;-145.01;100.00;64805.59;4991664;28;20022;-64
2021/08/24 07:51:43;;;;;;;13.50;4.93;;;;;;;-145.01;100.00;64805.59;4992866;28;20046;-64
2021/08/24 07:54:09;;;;;;;9.32;5.00;;;;;;;-145.01;100.00;64805.59;4993054;28;20033;-66
2021/08/24 07:56:34;;;;;;;10.68;4.53;;;;;;;-145.01;100.00;64805.59;4991439;28;20054;-64
2021/08/24 07:59:00;;;;;;;7.50;4.35;;;;;;;-145.01;100.00;64805.59;4992994;28;20029;-65
2021/08/24 08:01:25;;;;;;;8.73;4.70;;;;;;;-145.01;100.00;64805.59;4992768;28;20042;-64
2021/08/24 08:03:51;;;;;;;10.50;4.47;;;;;;;-145.01;100.00;64805.59;4993283;28;20037;-64
2021/08/24 08:06:16;;;;;;;9.88;4.47;;;;;;;-145.01;100.00;64805.59;4991659;28;20465;-65
2021/08/24 08:08:41;;;;;;;9.57;4.80;;;;;;;-145.01;100.00;64805.59;4992852;28;20516;-65
2021/08/24 08:11:07;;;;;;;8.23;3.97;;;;;;;-145.01;100.00;64805.59;4992563;28;20030;-64
2021/08/24 08:13:32;;;;;;;12.82;4.30;;;;;;;-145.01;100.00;64805.59;4991604;28;20171;-64
2021/08/24 08:15:58;;;;;;;8.38;4.15;;;;;;;-145.01;100.00;64805.59;4992516;28;20100;-64
2021/08/24 08:18:23;;;;;;;12.57;4.07;;;;;;;-145.01;100.00;64805.59;4995641;28;20089;-64
2021/08/24 08:20:48;;;;;;;9.20;4.35;;;;;;;-145.01;100.00;64805.59;4996268;28;20092;-64
2021/08/24 08:23:15;;;;;;;7.82;3.70;;;;;;;-145.01;100.00;64805.59;4996516;28;20088;-64
2021/08/24 08:25:41;;;;;;;15.40;3.78;;;;;;;-145.01;100.00;64805.59;4996189;28;20038;-64
2021/08/24 08:28:06;;;;;;;6.32;3.22;;;;;;;-145.01;100.00;64805.59;4995108;28;20034;-64
2021/08/24 08:30:32;;;;;;;9.30;3.72;;;;;;;-145.01;100.00;64805.59;4996081;28;20038;-64
2021/08/24 08:32:59;;;;;;;10.05;3.80;;;;;;;-145.01;100.00;64805.59;4996236;28;20378;-64
2021/08/24 08:35:24;;;;;;;9.98;3.30;;;;;;;-145.01;100.00;64805.59;4995781;28;20070;-64
2021/08/24 08:37:50;;;;;;;7.53;3.13;;;;;;;-145.01;100.00;64805.59;4995171;28;20030;-64
2021/08/24 08:40:17;;;;;;;7.07;3.13;;;;;;;-145.01;100.00;64805.59;4995786;28;20041;-64
2021/08/24 08:42:48;;;;;;;6.40;2.72;;;;;;;-145.01;100.00;64805.59;4978512;28;20053;-64
2021/08/24 08:45:17;;;;;;;9.00;2.95;;;;;;;-145.01;100.00;64805.59;4994665;28;20089;-64
2021/08/24 08:47:45;;;;;;;7.60;2.92;;;;;;;-145.01;100.00;64805.59;4994646;28;20026;-64
2021/08/24 08:50:13;;;;;;;4.55;2.58;;;;;;;-145.01;100.00;64805.59;4995493;28;20047;-64
2021/08/24 08:53:11;;;;;;;6.10;2.85;;;;;;;-145.01;100.00;64805.59;4995855;28;20046;-64
2021/08/24 08:55:41;;;;;;;6.85;3.03;;;;;;;-145.01;100.00;64805.59;4995219;28;20060;-64
2021/08/24 08:58:21;;;;;;;10.07;3.25;;;;;;;-145.01;100.00;64805.59;4994527;28;20027;-64
2021/08/24 09:00:51;;;;;;;7.85;3.13;;;;;;;-145.01;100.00;64805.59;4995422;28;20066;-64
2021/08/24 09:03:18;;;;;;;11.32;3.00;;;;;;;-145.01;100.00;64805.59;4994305;28;20026;-64
2021/08/24 09:05:45;;;;;;;8.27;2.90;;;;;;;-145.01;100.00;64805.59;4995072;28;20034;-65
2021/08/24 09:08:11;;;;;;;8.13;3.00;;;;;;;-145.01;100.00;64805.59;4994494;28;20112;-64
2021/08/24 09:10:41;;;;;;;9.25;3.03;;;;;;;-145.01;100.00;64805.59;4993285;28;20038;-64
2021/08/24 09:13:20;;;;;;;7.20;2.72;;;;;;;-145.01;100.00;64805.59;4995574;28;20389;-64
2021/08/24 09:15:49;;;;;;;5.47;2.80;;;;;;;-145.01;100.00;64805.59;4994167;28;20050;-64
2021/08/24 09:18:17;;;;;;;14.73;3.13;;;;;;;-145.01;100.00;64805.59;4978318;28;20535;-64
2021/08/24 09:21:09;;;;;;;10.75;3.63;;;;;;;-145.01;100.00;64805.59;4994986;28;20046;-64
2021/08/24 09:23:34;;;;;;;11.50;3.03;;;;;;;-145.01;100.00;64805.59;4996058;28;20440;-64
2021/08/24 09:26:18;;;;;;;8.93;3.30;;;;;;;-145.01;100.00;64805.59;4993513;28;20034;-64
2021/08/24 09:28:44;;;;;;;8.90;3.17;;;;;;;-145.01;100.00;64805.59;4994390;28;20485;-64
2021/08/24 09:31:15;;;;;;;7.75;3.78;;;;;;;-145.01;100.00;64805.59;4977428;28;20050;-64
2021/08/24 09:33:41;;;;;;;8.32;3.08;;;;;;;-145.01;100.00;64805.59;4995059;28;20026;-64
2021/08/24 09:36:06;;;;;;;6.88;3.58;;;;;;;-145.01;100.00;64805.59;4994842;28;20041;-64
2021/08/24 09:38:45;;;;;;;11.52;4.10;;;;;;;-145.01;100.00;64805.59;4994929;28;20029;-64
2021/08/24 09:41:28;;;;;;;6.60;3.15;;;;;;;-145.01;100.00;64805.59;4993484;28;20035;-64
2021/08/24 09:43:56;;;;;;;9.57;3.88;;;;;;;-145.01;100.00;64805.59;4994870;28;20377;-64
2021/08/24 09:46:21;;;;;;;8.77;3.30;;;;;;;-145.01;100.00;64805.59;4994482;28;20121;-64
2021/08/24 09:48:58;;;;;;;8.65;3.70;;;;;;;-145.01;100.00;64805.59;4993667;28;20026;-67
2021/08/24 09:51:42;;;;;;;8.52;3.30;;;;;;;-145.01;100.00;64805.59;4993320;28;20444;-64
2021/08/24 09:54:29;;;;;;;6.50;3.30;;;;;;;-145.01;100.00;64805.59;4994956;28;20026;-64
2021/08/24 09:57:00;;;;;;;8.90;3.38;;;;;;;-145.01;100.00;64805.59;4993278;28;20493;-65
2021/08/24 09:59:28;;;;;;;9.93;3.65;;;;;;;-145.01;100.00;64805.59;4977923;28;20030;-65
2021/08/24 10:01:53;;;;;;;8.68;3.20;;;;;;;-145.01;100.00;64805.59;4976800;28;20121;-64
2021/08/24 10:04:19;;;;;;;9.65;3.13;;;;;;;-145.01;100.00;64805.59;4977508;28;20161;-64
2021/08/24 10:06:57;;;;;;;7.43;3.35;;;;;;;-145.01;100.00;64805.59;4993068;28;20448;-64
2021/08/24 10:09:28;;;;;;;8.77;3.67;;;;;;;-145.01;100.00;64805.59;4994545;28;20050;-64
2021/08/24 10:12:26;;;;;;;8.82;3.40;;;;;;;-145.01;100.00;64805.59;4994208;28;20042;-64
2021/08/24 10:14:51;;;;;;;7.55;3.47;;;;;;;-145.01;100.00;64805.59;4994648;28;20036;-64
2021/08/24 10:17:34;;;;;;;8.05;3.50;;;;;;;-145.01;100.00;64805.59;4992634;28;20046;-64
2021/08/24 10:20:00;;;;;;;6.28;3.15;;;;;;;-145.01;100.00;64805.59;4994408;28;20034;-64
2021/08/24 10:22:31;;;;;;;8.20;3.47;;;;;;;-145.01;100.00;64805.59;4992834;28;20125;-64
2021/08/24 10:25:08;;;;;;;9.73;3.53;;;;;;;-145.01;100.00;64805.59;4992957;28;20029;-64
2021/08/24 10:27:35;;;;;;;9.52;3.72;;;;;;;-145.01;100.00;64805.59;4992699;28;20511;-64
2021/08/24 10:30:07;;;;;;;8.60;3.40;;;;;;;-145.01;100.00;64805.59;4993912;28;20506;-64
2021/08/24 10:32:35;;;;;;;7.60;3.53;;;;;;;-145.01;100.00;64805.59;4994071;28;20022;-64
2021/08/24 10:35:09;;;;;;;8.13;3.55;;;;;;;-145.01;100.00;64805.59;4976476;28;20057;-66
2021/08/24 10:37:44;;;;;;;9.13;3.75;;;;;;;-145.01;100.00;64805.59;4992885;28;20030;-66
2021/08/24 10:40:10;;;;;;;10.00;3.63;;;;;;;-145.01;100.00;64805.59;4993519;28;20042;-66
2021/08/24 10:42:39;;;;;;;7.88;3.30;;;;;;;-145.01;100.00;64805.59;4993927;28;20049;-65
2021/08/24 10:45:28;;;;;;;9.27;3.90;;;;;;;-145.01;100.00;64805.59;4976394;28;20061;-64
2021/08/24 10:47:56;;;;;;;7.85;3.30;;;;;;;-145.01;100.00;64805.59;4992925;28;20581;-65
2021/08/24 10:51:01;;;;;;;8.27;3.63;;;;;;;-145.01;100.00;64805.59;4976194;28;20026;-65
2021/08/24 10:53:46;;;;;;;9.50;3.53;;;;;;;-145.01;100.00;64805.59;4984085;28;20045;-65
2021/08/24 10:56:32;;;;;;;7.93;3.58;;;;;;;-145.01;100.00;64805.59;4992828;28;20509;-65
2021/08/24 10:59:27;;;;;;;10.00;3.85;;;;;;;-145.01;100.00;64805.59;4992384;28;20174;-65
2021/08/24 11:02:13;;;;;;;7.88;3.30;;;;;;;-145.01;100.00;64805.59;4991847;28;20473;-65
2021/08/24 11:05:13;;;;;;;6.30;3.17;;;;;;;-145.01;100.00;64805.59;4990584;28;21437;-65
2021/08/24 11:07:42;;;;;;;;;;;;;;;-145.01;100.00;64805.59;4953530;28;20126;-65
2021/08/24 11:10:07;;;;;;;10.27;3.63;;;;;;;-145.01;100.00;64805.59;4953597;28;20097;-65